County Line, Texas
Current Conditions -  °F | °C
As of 1:15 AM on Friday 31 Oct 2014 (Local Time) from KOSA Reporting Station
Clear Clear  
Wind Chill: 56°   Ceiling: Unl
Heat Index: 56°   Visibility: 10mi
Dew Point: 50°   Wind: 5mph
Humidity: 79%   Direction: 320°NW
Pressure: 30.14"   Gusts: NA
Location:  32.9352°N, 94.9553°W
Report Text: KOSA 310615Z AUTO 32004KT 10SM CLR 14/10 A3014 RMK AO1 T01360100
Loading
Personal Weather Stations






























Interactive Weather Map
Tropical Storm Tracking
New forecast layout! Learn more

10-Day Weather Forecast

Advertisements
Track Severe Weather on mobile